Grand Junction, Michigan
Current Conditions -  °F | °C
As of 11:35 PM on Monday 20 Oct 2014 (Local Time) from KLWA Reporting Station
Overcast Overcast  
Wind Chill: 51°   Ceiling: 3500
Heat Index: 51°   Visibility: 10mi
Dew Point: 45°   Wind: 5mph
Humidity: 80%   Direction: 30°NNE
Pressure: 29.97"   Gusts: NA
Location:  42.4°N, 86.07°W
Report Text: KLWA 210335Z AUTO 03004KT 10SM SCT018 BKN035 OVC065 11/07 A2997 RMK AO2 T01070073
Loading
Personal Weather Stations






























Interactive Weather Map
Tropical Storm Tracking
New forecast layout! Learn more

10-Day Weather Forecast

Advertisements
Track Severe Weather on mobile